Mineral, VA

10:43 AM EDT on October 01, 2014 (GMT -0400)
Louisa County-Freeman | Change Station
CLOSE
Current Station
Airport
Location: Louisa,
Elevation: 492 ft
Nearby Weather Stations

Elev 492 ft 38.01 °N, 77.97 °W | Updated 9 hours ago

Overcast
Overcast
72 °F
Feels Like 72 °F
N
3
Wind Variable Wind from NE
Gusts 4 mph

Today
High -- | Low -- °F
--% Chance of Precip.
Yesterday
High -- | Low -- °F
Precip. -- in
7:07 AM 6:54 PM
Waxing Crescent, 48% visible
Pressure 29.93 in
Visibility 0.8 miles
Clouds Overcast 100 ft
Dew Point 63 °F
Humidity 69%
Rainfall 0.00 in
Snow Depth Not available.
UV 0 out of 12
Pollen 3.50 out of 12
Air Quality Not available.
Flu Activity Not available.
METAR KLKU 300535Z AUTO 00000KT 3/4SM BR OVC001 18/17 A2993 RMK AO2

More Conditions Fewer Conditions

Pressure 29.93 in
Visibility 0.8 miles
Clouds Overcast 100 ft
Dew Point 63 °F
Humidity 69%
Rainfall 0.00 in
Snow Depth Not available.
UV 0 out of 12
Pollen 3.50 out of 12
Air Quality Not available.
Flu Activity Not available.
METAR KLKU 300535Z AUTO 00000KT 3/4SM BR OVC001 18/17 A2993 RMK AO2

More Conditions Fewer Conditions

10-Day Weather Forecast

Almanac

Astronomy

Oct. 01, 2014 Rise Set
Actual Time 7:07 AM EDT 6:54 PM EDT
Civil Twilight 6:41 AM EDT 7:21 PM EDT
Nautical Twilight 6:10 AM EDT 7:51 PM EDT
Astronomical Twilight 5:40 AM EDT 8:22 PM EDT
Moon 2:02 PM EDT No Moon Set
Length of Visible Light 12h 39m
Length of Day
11h 47m
Tomorrow will be 2m 24s shorter.
Waxing Crescent, 48% of the Moon is Illuminated
Today
Waxing Crescent
Oct 1
First Quarter
Oct 8
Full
Oct 15
Last Quarter
Oct 23
New

Today's Extremes

State Highs State Lows

Community

WunderPhotos

Upload Photos

1,757,960 photos uploaded!

Nearby

Snow Depth

Station Depth Elevation
No new snow has been reported.

Earthquake Activity

City Distance Mag. Time & Date
No recent earthquake activity has been reported nearby.
Minimum magnitude displayed is 2.5.

Coastal Water Temperatures

Place Temperature
No Stations Reporting

Nearby Weather Stations